createdAt,value
2017-05-15T00:00:20.497Z,15.24
2017-05-15T00:02:51.295Z,15.27
2017-05-15T00:05:22.069Z,15.14
2017-05-15T00:07:52.996Z,15.19
2017-05-15T00:10:23.567Z,15.13
2017-05-15T00:12:54.399Z,15.08
2017-05-15T00:15:25.176Z,14.97
2017-05-15T00:17:56.028Z,15.00
2017-05-15T00:20:26.816Z,14.91
2017-05-15T00:22:57.681Z,14.97
2017-05-15T00:25:28.446Z,14.92
2017-05-15T00:27:59.259Z,14.97
2017-05-15T00:30:30.022Z,14.94
2017-05-15T00:33:00.814Z,14.94
2017-05-15T00:35:31.582Z,14.94
2017-05-15T00:38:02.392Z,14.91
2017-05-15T00:40:33.174Z,14.91
2017-05-15T00:43:04.008Z,14.83
2017-05-15T00:45:34.862Z,14.91
2017-05-15T00:48:05.691Z,14.89
2017-05-15T00:50:36.489Z,14.91
2017-05-15T00:53:07.304Z,14.82
2017-05-15T00:55:38.094Z,14.80
2017-05-15T00:58:08.926Z,14.83
2017-05-15T01:00:39.763Z,14.79
2017-05-15T01:03:10.709Z,14.77
2017-05-15T01:05:41.545Z,14.74
2017-05-15T01:08:12.343Z,14.69
2017-05-15T01:10:43.222Z,14.71
2017-05-15T01:13:14.047Z,14.76
2017-05-15T01:15:44.824Z,14.75
2017-05-15T01:18:15.697Z,14.66
2017-05-15T01:20:46.462Z,14.63
2017-05-15T01:23:17.310Z,14.62
2017-05-15T01:25:48.091Z,14.57
2017-05-15T01:28:18.902Z,14.61
2017-05-15T01:30:49.662Z,14.52
2017-05-15T01:33:20.465Z,14.54
2017-05-15T01:35:50.613Z,14.51
2017-05-15T01:38:21.256Z,14.54
2017-05-15T01:40:51.294Z,14.48
2017-05-15T01:43:21.747Z,14.40
2017-05-15T01:45:52.131Z,14.43
2017-05-15T01:48:22.589Z,14.48
2017-05-15T01:50:52.730Z,14.40
2017-05-15T01:53:23.446Z,14.44
2017-05-15T01:55:53.497Z,14.47
2017-05-15T01:58:23.978Z,14.55
2017-05-15T02:00:54.042Z,14.46
2017-05-15T02:03:24.153Z,14.40
2017-05-15T02:05:54.025Z,14.44
2017-05-15T02:08:24.440Z,14.39
2017-05-15T02:10:54.639Z,14.35
2017-05-15T02:13:24.679Z,14.32
2017-05-15T02:15:55.091Z,14.32
2017-05-15T02:18:25.001Z,14.27
2017-05-15T02:20:55.222Z,14.26
2017-05-15T02:23:25.085Z,14.22
2017-05-15T02:25:54.970Z,14.20
2017-05-15T02:28:25.024Z,14.18
2017-05-15T02:30:55.089Z,14.17
2017-05-15T02:33:25.482Z,14.18
2017-05-15T02:35:56.279Z,14.24
2017-05-15T02:38:27.081Z,14.26
2017-05-15T02:40:57.881Z,14.32
2017-05-15T02:43:28.646Z,14.34
2017-05-15T02:45:58.727Z,14.36
2017-05-15T02:48:28.947Z,14.40
2017-05-15T02:50:59.649Z,14.41
2017-05-15T02:53:30.431Z,14.43
2017-05-15T02:56:01.360Z,14.53
2017-05-15T02:58:31.731Z,14.49
2017-05-15T03:01:02.525Z,14.53
2017-05-15T03:03:33.288Z,14.51
2017-05-15T03:06:03.750Z,14.49
2017-05-15T03:08:35.360Z,14.51
2017-05-15T03:11:05.843Z,14.44
2017-05-15T03:13:35.882Z,14.41
2017-05-15T03:16:06.714Z,14.41
2017-05-15T03:18:36.997Z,14.37
2017-05-15T03:21:07.820Z,14.45
2017-05-15T03:23:38.646Z,14.44
2017-05-15T03:26:09.136Z,14.38
2017-05-15T03:28:39.546Z,14.32
2017-05-15T03:31:09.810Z,14.27
2017-05-15T03:33:39.887Z,14.29
2017-05-15T03:36:10.232Z,14.32
2017-05-15T03:38:41.158Z,14.27
2017-05-15T03:41:11.993Z,14.32
2017-05-15T03:43:42.070Z,14.30
2017-05-15T03:46:12.187Z,14.35
2017-05-15T03:48:42.664Z,14.37
2017-05-15T03:51:13.104Z,14.26
2017-05-15T03:53:43.494Z,14.17
2017-05-15T03:56:14.317Z,14.25
2017-05-15T03:58:44.370Z,14.24
2017-05-15T04:01:15.306Z,14.21
2017-05-15T04:03:45.263Z,14.24
2017-05-15T04:06:15.331Z,14.26
2017-05-15T04:08:46.232Z,14.28
2017-05-15T04:11:16.677Z,14.26
2017-05-15T04:13:46.756Z,14.26
2017-05-15T04:16:17.197Z,14.26
2017-05-15T04:18:48.690Z,14.29
2017-05-15T04:21:19.143Z,14.28
2017-05-15T04:23:49.565Z,14.35
2017-05-15T04:26:19.959Z,14.44
2017-05-15T04:28:50.743Z,14.54
2017-05-15T04:31:21.517Z,14.67
2017-05-15T04:33:52.644Z,14.64
2017-05-15T04:36:22.699Z,14.69
2017-05-15T04:38:53.632Z,14.78
2017-05-15T04:41:24.561Z,14.83
2017-05-15T04:43:55.021Z,14.84
2017-05-15T04:46:25.430Z,14.94
2017-05-15T04:48:55.979Z,15.03
2017-05-15T04:51:26.747Z,15.13
2017-05-15T04:53:57.610Z,15.15
2017-05-15T04:56:28.383Z,15.12
2017-05-15T04:58:58.825Z,15.12
2017-05-15T05:01:29.225Z,15.12
2017-05-15T05:03:59.338Z,15.10
2017-05-15T05:06:29.377Z,15.09
2017-05-15T05:08:59.855Z,15.12
2017-05-15T05:11:30.278Z,15.14
2017-05-15T05:14:00.764Z,15.09
2017-05-15T05:16:31.522Z,15.09
2017-05-15T05:19:01.682Z,15.18
2017-05-15T05:21:31.534Z,15.17
2017-05-15T05:24:28.028Z,15.18
2017-05-15T05:27:14.443Z,15.22
2017-05-15T05:29:54.247Z,15.25
2017-05-15T05:32:46.581Z,15.33
2017-05-15T05:35:44.626Z,15.37
2017-05-15T05:38:36.035Z,15.45
2017-05-15T05:41:24.882Z,15.54
2017-05-15T05:43:57.806Z,15.60
2017-05-15T05:46:28.414Z,15.56
2017-05-15T05:49:01.011Z,15.65
2017-05-15T05:51:32.967Z,15.60
2017-05-15T05:54:03.026Z,15.47
2017-05-15T05:56:51.404Z,15.56
2017-05-15T05:59:52.828Z,15.62
2017-05-15T06:02:44.347Z,15.67
2017-05-15T06:05:31.626Z,15.74
2017-05-15T06:11:34.644Z,15.95
2017-05-15T06:14:17.637Z,16.02
2017-05-15T06:17:00.949Z,15.99
2017-05-15T06:19:31.306Z,16.05
2017-05-15T06:22:02.771Z,16.00
2017-05-15T06:24:46.038Z,16.07
2017-05-15T06:27:19.051Z,16.16
2017-05-15T06:29:51.031Z,16.15
2017-05-15T06:32:22.978Z,16.20
2017-05-15T06:34:54.563Z,16.24
2017-05-15T06:37:24.665Z,16.20
2017-05-15T06:40:06.640Z,16.21
2017-05-15T06:42:40.235Z,16.24
2017-05-15T06:45:11.492Z,16.27
2017-05-15T06:47:43.214Z,16.16
2017-05-15T06:50:14.739Z,16.18
2017-05-15T06:52:46.282Z,16.29
2017-05-15T06:55:17.819Z,16.35
2017-05-15T06:57:49.201Z,16.36
2017-05-15T07:00:20.772Z,16.32
2017-05-15T07:02:52.094Z,16.27
2017-05-15T07:05:24.204Z,16.27
2017-05-15T07:07:53.780Z,16.20
2017-05-15T07:10:24.559Z,16.23
2017-05-15T07:12:55.359Z,16.11
2017-05-15T07:15:26.168Z,16.13
2017-05-15T07:17:57.066Z,16.15
2017-05-15T07:20:27.919Z,16.13
2017-05-15T07:22:58.745Z,16.23
2017-05-15T07:25:29.558Z,16.28
2017-05-15T07:28:00.430Z,16.22
2017-05-15T07:30:31.207Z,16.22
2017-05-15T07:33:02.016Z,16.20
2017-05-15T07:35:32.798Z,16.19
2017-05-15T07:38:03.626Z,16.10
2017-05-15T07:40:34.462Z,16.02
2017-05-15T07:43:05.299Z,15.87
2017-05-15T07:45:36.069Z,15.84
2017-05-15T07:48:07.037Z,15.76
2017-05-15T07:50:37.819Z,15.62
2017-05-15T07:53:08.659Z,15.53
2017-05-15T07:55:39.477Z,15.52
2017-05-15T07:58:11.753Z,15.50
2017-05-15T08:00:42.550Z,15.57
2017-05-15T08:03:13.362Z,15.61
2017-05-15T08:05:43.551Z,15.49
2017-05-15T08:08:14.394Z,15.53
2017-05-15T08:10:45.220Z,15.51
2017-05-15T08:13:16.123Z,15.55
2017-05-15T08:15:46.903Z,15.65
2017-05-15T08:18:17.980Z,15.70
2017-05-15T08:20:48.995Z,15.83
2017-05-15T08:23:19.948Z,15.87
2017-05-15T08:25:51.163Z,15.95
2017-05-15T08:28:22.430Z,15.92
2017-05-15T08:30:53.503Z,15.94
2017-05-15T08:33:24.611Z,16.15
2017-05-15T08:35:55.849Z,16.24
2017-05-15T08:38:27.049Z,16.32
2017-05-15T08:40:58.193Z,16.34
2017-05-15T08:43:29.284Z,16.56
2017-05-15T08:46:00.522Z,16.67
2017-05-15T08:48:31.618Z,16.78
2017-05-15T08:51:03.149Z,16.88
2017-05-15T08:53:34.245Z,16.96
2017-05-15T08:56:05.394Z,17.08
2017-05-15T08:58:37.030Z,17.22
2017-05-15T09:01:08.792Z,17.42
2017-05-15T09:03:39.810Z,17.57
2017-05-15T09:06:11.394Z,17.73
2017-05-15T09:08:43.227Z,17.72
2017-05-15T09:11:15.076Z,17.90
2017-05-15T09:13:47.648Z,18.08
2017-05-15T09:16:18.929Z,18.16
2017-05-15T09:18:49.764Z,18.30
2017-05-15T09:21:20.551Z,18.24
2017-05-15T09:23:51.338Z,18.20
2017-05-15T09:26:22.121Z,18.22
2017-05-15T09:28:52.942Z,18.23
2017-05-15T09:31:23.715Z,18.38
2017-05-15T09:33:54.528Z,18.34
2017-05-15T09:36:25.287Z,18.30
2017-05-15T09:38:56.128Z,18.33
2017-05-15T09:41:26.918Z,18.44
2017-05-15T09:43:57.734Z,18.54
2017-05-15T09:46:28.498Z,18.67
2017-05-15T09:48:59.357Z,18.70
2017-05-15T09:51:30.173Z,18.72
2017-05-15T09:54:00.989Z,18.82
2017-05-15T09:56:31.755Z,18.72
2017-05-15T09:59:02.573Z,18.93
2017-05-15T10:01:34.201Z,19.01
2017-05-15T10:04:05.022Z,19.16
2017-05-15T10:06:35.826Z,19.30
2017-05-15T10:09:06.675Z,19.36
2017-05-15T10:11:37.445Z,19.18
2017-05-15T10:14:08.287Z,19.08
2017-05-15T10:16:39.054Z,19.03
2017-05-15T10:19:09.891Z,19.08
2017-05-15T10:21:40.856Z,19.25
2017-05-15T10:24:11.770Z,19.30
2017-05-15T10:26:42.562Z,19.31
2017-05-15T10:29:13.355Z,19.42
2017-05-15T10:31:44.198Z,19.16
2017-05-15T10:34:15.085Z,19.12
2017-05-15T10:36:45.852Z,19.15
2017-05-15T10:39:16.718Z,19.19
2017-05-15T10:41:47.489Z,19.30
2017-05-15T10:44:18.298Z,19.47
2017-05-15T10:46:49.057Z,19.62
2017-05-15T10:49:19.895Z,19.66
2017-05-15T10:51:50.696Z,19.56
2017-05-15T10:54:21.488Z,19.57
2017-05-15T10:56:52.250Z,19.61
2017-05-15T10:59:23.053Z,19.71
2017-05-15T11:01:53.820Z,19.80
2017-05-15T11:04:24.628Z,19.85
2017-05-15T11:06:55.413Z,20.01
2017-05-15T11:09:26.261Z,19.99
2017-05-15T11:11:57.722Z,19.81
2017-05-15T11:14:28.999Z,19.77
2017-05-15T11:16:59.907Z,19.73
2017-05-15T11:19:30.969Z,19.70
2017-05-15T11:22:02.118Z,19.71
2017-05-15T11:24:33.504Z,19.90
2017-05-15T11:27:04.423Z,19.99
2017-05-15T11:29:35.788Z,19.91
2017-05-15T11:32:06.885Z,19.95
2017-05-15T11:34:37.964Z,19.84
2017-05-15T11:37:08.806Z,19.75
2017-05-15T11:39:39.826Z,19.56
2017-05-15T11:42:10.806Z,19.43
2017-05-15T11:44:41.841Z,19.59
2017-05-15T11:47:12.820Z,19.83
2017-05-15T11:49:43.632Z,19.86
2017-05-15T11:52:14.395Z,20.00
2017-05-15T11:54:45.237Z,20.03
2017-05-15T11:57:16.014Z,20.03
2017-05-15T11:59:46.843Z,20.17
2017-05-15T12:02:17.713Z,20.31
2017-05-15T12:04:48.920Z,20.36
2017-05-15T12:07:19.698Z,20.45
2017-05-15T12:09:50.551Z,20.42
2017-05-15T12:12:21.356Z,20.40
2017-05-15T12:14:52.143Z,20.52
2017-05-15T12:17:22.900Z,20.36
2017-05-15T12:19:53.707Z,20.48
2017-05-15T12:22:24.560Z,20.49
2017-05-15T12:24:55.367Z,20.54
2017-05-15T12:27:26.154Z,20.55
2017-05-15T12:29:57.030Z,20.45
2017-05-15T12:32:30.005Z,20.46
2017-05-15T12:35:04.266Z,20.53
2017-05-15T12:37:38.501Z,20.55
2017-05-15T12:40:11.825Z,20.58
2017-05-15T12:42:44.747Z,20.70
2017-05-15T12:45:18.537Z,20.77
2017-05-15T12:47:51.496Z,20.67
2017-05-15T12:50:24.690Z,20.48
2017-05-15T12:52:56.758Z,20.53
2017-05-15T12:55:29.490Z,20.55
2017-05-15T12:58:03.075Z,20.60
2017-05-15T13:00:33.914Z,20.60
2017-05-15T13:03:04.669Z,20.47
2017-05-15T13:05:35.514Z,20.41
2017-05-15T13:08:06.291Z,20.37
2017-05-15T13:10:37.223Z,20.38
2017-05-15T13:13:07.994Z,20.39
2017-05-15T13:15:38.785Z,20.43
2017-05-15T13:18:09.530Z,20.36
2017-05-15T13:20:40.326Z,20.41
2017-05-15T13:23:11.261Z,20.40
2017-05-15T13:25:42.270Z,20.42
2017-05-15T13:28:13.067Z,20.45
2017-05-15T13:30:43.871Z,20.47
2017-05-15T13:33:14.631Z,20.44
2017-05-15T13:35:45.383Z,20.48
2017-05-15T13:38:16.190Z,20.46
2017-05-15T13:40:46.972Z,20.40
2017-05-15T13:43:17.807Z,20.39
2017-05-15T13:45:48.569Z,20.41
2017-05-15T13:48:19.445Z,20.39
2017-05-15T13:50:50.225Z,20.47
2017-05-15T13:53:21.016Z,20.45
2017-05-15T13:55:51.826Z,20.42
2017-05-15T13:58:22.618Z,20.44
2017-05-15T14:00:53.599Z,20.52
2017-05-15T14:03:24.414Z,20.47
2017-05-15T14:05:55.177Z,20.51
2017-05-15T14:08:25.989Z,20.47
2017-05-15T14:10:56.763Z,20.45
2017-05-15T14:13:27.580Z,20.38
2017-05-15T14:15:58.369Z,20.44
2017-05-15T14:18:29.146Z,20.49
2017-05-15T14:20:59.921Z,20.60
2017-05-15T14:23:30.749Z,20.60
2017-05-15T14:26:01.517Z,20.56
2017-05-15T14:28:32.338Z,20.58
2017-05-15T14:31:03.092Z,20.62
2017-05-15T14:33:33.891Z,20.53
2017-05-15T14:36:04.373Z,20.61
2017-05-15T14:38:35.218Z,20.59
2017-05-15T14:41:05.997Z,20.53
2017-05-15T14:43:36.794Z,20.50
2017-05-15T14:46:07.547Z,20.47
2017-05-15T14:48:38.370Z,20.48
2017-05-15T14:51:09.151Z,20.57
2017-05-15T14:53:39.953Z,20.55
2017-05-15T14:56:10.765Z,20.55
2017-05-15T14:58:41.597Z,20.63
2017-05-15T15:01:12.405Z,20.58
2017-05-15T15:03:43.199Z,20.56
2017-05-15T15:06:13.958Z,20.59
2017-05-15T15:08:44.762Z,20.46
2017-05-15T15:11:15.510Z,20.46
2017-05-15T15:13:46.310Z,20.50
2017-05-15T15:16:17.091Z,20.41
2017-05-15T15:18:47.923Z,20.43
2017-05-15T15:21:18.694Z,20.36
2017-05-15T15:23:49.549Z,20.30
2017-05-15T15:26:20.326Z,20.25
2017-05-15T15:28:51.170Z,20.28
2017-05-15T15:31:21.943Z,20.33
2017-05-15T15:33:52.753Z,20.25
2017-05-15T15:36:23.523Z,20.26
2017-05-15T15:38:54.414Z,20.24
2017-05-15T15:41:25.185Z,20.21
2017-05-15T15:43:56.024Z,20.24
2017-05-15T15:46:26.824Z,20.28
2017-05-15T15:48:57.627Z,20.32
2017-05-15T15:51:28.442Z,20.29
2017-05-15T15:53:59.287Z,20.26
2017-05-15T15:56:30.066Z,20.20
2017-05-15T15:59:00.882Z,20.17
2017-05-15T16:01:31.691Z,20.04
2017-05-15T16:04:02.544Z,20.02
2017-05-15T16:06:33.320Z,20.02
2017-05-15T16:09:03.584Z,20.00
2017-05-15T16:11:35.214Z,19.99
2017-05-15T16:14:06.054Z,19.98
2017-05-15T16:16:36.847Z,20.04
2017-05-15T16:19:07.658Z,20.11
2017-05-15T16:21:38.415Z,20.14
2017-05-15T16:24:09.374Z,20.14
2017-05-15T16:26:40.135Z,20.16
2017-05-15T16:29:11.193Z,20.13
2017-05-15T16:31:42.098Z,20.17
2017-05-15T16:34:12.917Z,20.21
2017-05-15T16:36:43.742Z,20.08
2017-05-15T16:39:14.559Z,20.03
2017-05-15T16:41:45.395Z,20.00
2017-05-15T16:44:16.216Z,19.94
2017-05-15T16:46:47.005Z,19.95
2017-05-15T16:49:17.794Z,19.92
2017-05-15T16:51:48.588Z,19.83
2017-05-15T16:54:19.475Z,19.73
2017-05-15T16:56:50.245Z,19.70
2017-05-15T16:59:21.065Z,19.75
2017-05-15T17:01:51.818Z,19.80
2017-05-15T17:04:22.603Z,19.88
2017-05-15T17:06:53.368Z,19.90
2017-05-15T17:09:24.238Z,19.89
2017-05-15T17:11:55.019Z,19.96
2017-05-15T17:14:25.826Z,19.92
2017-05-15T17:16:57.232Z,19.95
2017-05-15T17:19:28.033Z,19.92
2017-05-15T17:21:58.803Z,19.94
2017-05-15T17:24:29.647Z,19.84
2017-05-15T17:27:00.480Z,19.88
2017-05-15T17:29:31.299Z,19.79
2017-05-15T17:32:02.079Z,19.79
2017-05-15T17:34:35.093Z,19.72
2017-05-15T17:37:05.878Z,19.68
2017-05-15T17:39:36.762Z,19.65
2017-05-15T17:42:07.611Z,19.70
2017-05-15T17:44:38.430Z,19.70
2017-05-15T17:47:09.191Z,19.57
2017-05-15T17:49:40.008Z,19.61
2017-05-15T17:52:10.783Z,19.51
2017-05-15T17:54:42.536Z,19.41
2017-05-15T17:57:13.297Z,19.44
2017-05-15T17:59:44.229Z,19.42
2017-05-15T18:02:14.978Z,19.38
2017-05-15T18:04:45.788Z,19.29
2017-05-15T18:07:16.569Z,19.20
2017-05-15T18:09:47.462Z,19.17
2017-05-15T18:12:18.255Z,19.12
2017-05-15T18:14:49.134Z,19.10
2017-05-15T18:17:19.915Z,18.99
2017-05-15T18:19:50.707Z,18.93
2017-05-15T18:22:21.519Z,18.91
2017-05-15T18:24:53.104Z,18.85
2017-05-15T18:27:24.613Z,18.81
2017-05-15T18:29:55.726Z,18.91
2017-05-15T18:32:26.703Z,18.90
2017-05-15T18:34:57.828Z,18.89
2017-05-15T18:37:28.764Z,18.85
2017-05-15T18:39:59.711Z,18.81
2017-05-15T18:42:31.010Z,18.78
2017-05-15T18:45:01.904Z,18.76
2017-05-15T18:47:32.698Z,18.69
2017-05-15T18:50:03.930Z,18.66
2017-05-15T18:52:35.234Z,18.60
2017-05-15T18:55:06.031Z,18.49
2017-05-15T18:57:36.847Z,18.45
2017-05-15T19:00:09.767Z,18.42
2017-05-15T19:02:42.399Z,18.48
2017-05-15T19:05:14.347Z,18.32
2017-05-15T19:07:45.547Z,18.17
2017-05-15T19:10:16.954Z,18.13
2017-05-15T19:12:51.026Z,18.11
2017-05-15T19:15:25.119Z,18.08
2017-05-15T19:17:58.549Z,17.91
2017-05-15T19:20:32.324Z,17.82
2017-05-15T19:23:06.127Z,17.71
2017-05-15T19:25:37.962Z,17.65
2017-05-15T19:28:09.968Z,17.59
2017-05-15T19:30:43.960Z,17.55
2017-05-15T19:33:18.341Z,17.52
2017-05-15T19:35:51.291Z,17.48
2017-05-15T19:38:24.333Z,17.36
2017-05-15T19:40:58.864Z,17.35
2017-05-15T19:43:31.830Z,17.32
2017-05-15T19:46:05.747Z,17.22
2017-05-15T19:48:39.318Z,17.18
2017-05-15T19:51:11.819Z,17.18
2017-05-15T19:53:42.670Z,17.10
2017-05-15T19:56:13.426Z,17.09
2017-05-15T19:58:45.669Z,16.97
2017-05-15T20:01:19.643Z,16.91
2017-05-15T20:03:52.451Z,16.93
2017-05-15T20:06:24.455Z,16.82
2017-05-15T20:08:56.866Z,16.77
2017-05-15T20:11:29.489Z,16.73
2017-05-15T20:14:01.515Z,16.71
2017-05-15T20:16:33.495Z,16.60
2017-05-15T20:19:05.384Z,16.60
2017-05-15T20:21:36.192Z,16.56
2017-05-15T20:24:06.997Z,16.50
2017-05-15T20:26:37.820Z,16.40
2017-05-15T20:29:08.622Z,16.24
2017-05-15T20:31:39.392Z,16.25
2017-05-15T20:34:10.236Z,16.19
2017-05-15T20:36:41.005Z,16.21
2017-05-15T20:39:11.947Z,16.15
2017-05-15T20:41:42.858Z,16.10
2017-05-15T20:44:13.666Z,16.08
2017-05-15T20:46:44.573Z,16.04
2017-05-15T20:49:15.407Z,16.03
2017-05-15T20:51:45.846Z,15.99
2017-05-15T20:54:16.675Z,15.88
2017-05-15T20:56:47.479Z,15.85
2017-05-15T20:59:18.310Z,15.84
2017-05-15T21:01:49.080Z,15.83
2017-05-15T21:04:19.886Z,15.69
2017-05-15T21:06:50.654Z,15.69
2017-05-15T21:09:21.514Z,15.65
2017-05-15T21:11:53.244Z,15.68
2017-05-15T21:14:24.052Z,15.63
2017-05-15T21:16:58.340Z,15.59
2017-05-15T21:19:29.172Z,15.59
2017-05-15T21:22:00.053Z,15.61
2017-05-15T21:24:30.916Z,15.54
2017-05-15T21:27:01.725Z,15.38
2017-05-15T21:29:32.543Z,15.51
2017-05-15T21:32:03.373Z,15.48
2017-05-15T21:34:34.186Z,15.42
2017-05-15T21:37:04.942Z,15.39
2017-05-15T21:39:35.822Z,15.30
2017-05-15T21:42:06.587Z,15.27
2017-05-15T21:44:37.403Z,15.26
2017-05-15T21:47:08.218Z,15.19
2017-05-15T21:49:39.054Z,15.18
2017-05-15T21:52:09.830Z,15.18
2017-05-15T21:54:41.551Z,15.18
2017-05-15T21:57:13.410Z,15.16
2017-05-15T21:59:44.291Z,15.16
2017-05-15T22:02:15.102Z,15.10
2017-05-15T22:04:45.961Z,15.04
2017-05-15T22:07:16.761Z,15.05
2017-05-15T22:09:47.579Z,14.94
2017-05-15T22:12:18.411Z,14.93
2017-05-15T22:14:49.241Z,14.95
2017-05-15T22:17:20.047Z,14.95
2017-05-15T22:19:50.989Z,14.96
2017-05-15T22:22:21.756Z,14.98
2017-05-15T22:24:52.563Z,14.92
2017-05-15T22:27:23.379Z,14.87
2017-05-15T22:29:54.180Z,14.88
2017-05-15T22:32:24.946Z,14.74
2017-05-15T22:34:55.749Z,14.79
2017-05-15T22:37:26.531Z,14.80
2017-05-15T22:39:58.067Z,14.77
2017-05-15T22:42:28.862Z,14.84
2017-05-15T22:44:59.690Z,14.81
2017-05-15T22:47:30.467Z,14.70
2017-05-15T22:50:01.338Z,14.80
2017-05-15T22:52:32.126Z,14.82
2017-05-15T22:55:02.983Z,14.71
2017-05-15T22:57:33.760Z,14.73
2017-05-15T23:00:06.303Z,14.69
2017-05-15T23:02:37.122Z,14.67
2017-05-15T23:05:07.951Z,14.68
2017-05-15T23:07:38.720Z,14.64
2017-05-15T23:10:10.172Z,14.53
2017-05-15T23:12:40.982Z,14.60
2017-05-15T23:15:11.861Z,14.61
2017-05-15T23:17:43.108Z,14.58
2017-05-15T23:20:13.930Z,14.49
2017-05-15T23:22:45.083Z,14.57
2017-05-15T23:25:15.914Z,14.46
2017-05-15T23:27:46.839Z,14.47
2017-05-15T23:30:17.755Z,14.48
2017-05-15T23:32:48.537Z,14.53
2017-05-15T23:35:19.361Z,14.58
2017-05-15T23:37:50.131Z,14.55
2017-05-15T23:40:21.763Z,14.49
2017-05-15T23:42:52.540Z,14.43
2017-05-15T23:45:23.346Z,14.45
2017-05-15T23:47:54.117Z,14.36
2017-05-15T23:50:24.918Z,14.43
2017-05-15T23:52:55.682Z,14.47
2017-05-15T23:55:26.530Z,14.46
2017-05-15T23:58:00.008Z,14.37
